sensor_id;sensor_type;location;lat;lon;timestamp;P1;durP1;ratioP1;P2;durP2;ratioP2
4274;SDS011;2151;50.988;11.068;2022-10-29T00:00:39;120.70;;;5.40;;
4274;SDS011;2151;50.988;11.068;2022-10-29T00:03:06;120.17;;;5.50;;
4274;SDS011;2151;50.988;11.068;2022-10-29T00:05:32;120.80;;;5.30;;
4274;SDS011;2151;50.988;11.068;2022-10-29T00:07:59;120.97;;;5.23;;
4274;SDS011;2151;50.988;11.068;2022-10-29T00:10:25;121.47;;;5.87;;
4274;SDS011;2151;50.988;11.068;2022-10-29T00:12:52;121.37;;;5.63;;
4274;SDS011;2151;50.988;11.068;2022-10-29T00:15:18;121.70;;;5.83;;
4274;SDS011;2151;50.988;11.068;2022-10-29T00:17:44;122.53;;;6.23;;
4274;SDS011;2151;50.988;11.068;2022-10-29T00:20:11;122.37;;;6.43;;
4274;SDS011;2151;50.988;11.068;2022-10-29T00:22:37;122.10;;;5.60;;
4274;SDS011;2151;50.988;11.068;2022-10-29T00:25:04;122.20;;;5.80;;
4274;SDS011;2151;50.988;11.068;2022-10-29T00:27:30;122.07;;;6.03;;
4274;SDS011;2151;50.988;11.068;2022-10-29T00:29:57;122.97;;;6.47;;
4274;SDS011;2151;50.988;11.068;2022-10-29T00:32:23;122.80;;;6.43;;
4274;SDS011;2151;50.988;11.068;2022-10-29T00:34:49;123.20;;;6.33;;
4274;SDS011;2151;50.988;11.068;2022-10-29T00:37:16;123.70;;;6.70;;
4274;SDS011;2151;50.988;11.068;2022-10-29T00:39:42;125.57;;;7.30;;
4274;SDS011;2151;50.988;11.068;2022-10-29T00:42:14;124.83;;;6.87;;
4274;SDS011;2151;50.988;11.068;2022-10-29T00:44:41;125.77;;;7.10;;
4274;SDS011;2151;50.988;11.068;2022-10-29T00:47:27;125.80;;;7.23;;
4274;SDS011;2151;50.988;11.068;2022-10-29T00:50:02;126.63;;;7.70;;
4274;SDS011;2151;50.988;11.068;2022-10-29T00:52:31;127.07;;;7.67;;
4274;SDS011;2151;50.988;11.068;2022-10-29T00:54:59;127.27;;;7.87;;
4274;SDS011;2151;50.988;11.068;2022-10-29T00:57:28;127.10;;;8.13;;
4274;SDS011;2151;50.988;11.068;2022-10-29T00:59:56;130.07;;;8.93;;
4274;SDS011;2151;50.988;11.068;2022-10-29T01:02:22;127.87;;;8.83;;
4274;SDS011;2151;50.988;11.068;2022-10-29T01:04:49;127.57;;;8.63;;
4274;SDS011;2151;50.988;11.068;2022-10-29T01:07:17;128.87;;;9.50;;
4274;SDS011;2151;50.988;11.068;2022-10-29T01:09:43;129.23;;;9.47;;
4274;SDS011;2151;50.988;11.068;2022-10-29T01:17:44;129.67;;;10.97;;
4274;SDS011;2151;50.988;11.068;2022-10-29T01:40:47;131.07;;;13.80;;
4274;SDS011;2151;50.988;11.068;2022-10-29T01:43:27;130.37;;;13.20;;
4274;SDS011;2151;50.988;11.068;2022-10-29T01:46:09;130.47;;;13.83;;
4274;SDS011;2151;50.988;11.068;2022-10-29T01:48:37;130.70;;;14.10;;
4274;SDS011;2151;50.988;11.068;2022-10-29T01:51:07;129.90;;;13.57;;
4274;SDS011;2151;50.988;11.068;2022-10-29T01:53:35;130.97;;;13.60;;
4274;SDS011;2151;50.988;11.068;2022-10-29T01:56:02;130.50;;;13.80;;
4274;SDS011;2151;50.988;11.068;2022-10-29T01:58:28;130.20;;;14.03;;
4274;SDS011;2151;50.988;11.068;2022-10-29T02:01:57;131.20;;;14.70;;
4274;SDS011;2151;50.988;11.068;2022-10-29T02:04:53;130.50;;;15.63;;
4274;SDS011;2151;50.988;11.068;2022-10-29T02:14:48;130.37;;;16.80;;
4274;SDS011;2151;50.988;11.068;2022-10-29T02:17:17;130.87;;;16.60;;
4274;SDS011;2151;50.988;11.068;2022-10-29T02:19:43;130.07;;;16.63;;
4274;SDS011;2151;50.988;11.068;2022-10-29T02:22:09;130.87;;;17.90;;
4274;SDS011;2151;50.988;11.068;2022-10-29T02:24:35;130.57;;;18.00;;
4274;SDS011;2151;50.988;11.068;2022-10-29T02:27:02;130.37;;;18.03;;
4274;SDS011;2151;50.988;11.068;2022-10-29T02:29:28;130.40;;;17.97;;
4274;SDS011;2151;50.988;11.068;2022-10-29T02:31:55;129.40;;;16.97;;
4274;SDS011;2151;50.988;11.068;2022-10-29T02:34:21;128.90;;;16.97;;
4274;SDS011;2151;50.988;11.068;2022-10-29T02:36:47;129.50;;;17.30;;
4274;SDS011;2151;50.988;11.068;2022-10-29T02:39:13;129.13;;;16.80;;
4274;SDS011;2151;50.988;11.068;2022-10-29T02:41:40;128.87;;;16.70;;
4274;SDS011;2151;50.988;11.068;2022-10-29T02:44:06;128.20;;;16.10;;
4274;SDS011;2151;50.988;11.068;2022-10-29T02:46:32;128.37;;;16.40;;
4274;SDS011;2151;50.988;11.068;2022-10-29T02:49:05;127.77;;;15.73;;
4274;SDS011;2151;50.988;11.068;2022-10-29T02:51:31;127.37;;;16.00;;
4274;SDS011;2151;50.988;11.068;2022-10-29T02:53:58;127.63;;;15.50;;
4274;SDS011;2151;50.988;11.068;2022-10-29T02:56:24;127.37;;;15.07;;
4274;SDS011;2151;50.988;11.068;2022-10-29T02:58:50;130.73;;;16.93;;
4274;SDS011;2151;50.988;11.068;2022-10-29T03:01:16;130.27;;;16.10;;
4274;SDS011;2151;50.988;11.068;2022-10-29T03:03:43;127.60;;;14.70;;
4274;SDS011;2151;50.988;11.068;2022-10-29T03:06:16;127.50;;;15.00;;
4274;SDS011;2151;50.988;11.068;2022-10-29T03:08:43;127.57;;;15.30;;
4274;SDS011;2151;50.988;11.068;2022-10-29T03:11:09;127.37;;;15.20;;
4274;SDS011;2151;50.988;11.068;2022-10-29T03:13:36;127.40;;;15.40;;
4274;SDS011;2151;50.988;11.068;2022-10-29T03:16:07;127.07;;;14.30;;
4274;SDS011;2151;50.988;11.068;2022-10-29T03:18:34;128.07;;;15.90;;
4274;SDS011;2151;50.988;11.068;2022-10-29T03:21:00;128.57;;;17.10;;
4274;SDS011;2151;50.988;11.068;2022-10-29T03:23:27;127.67;;;15.53;;
4274;SDS011;2151;50.988;11.068;2022-10-29T03:25:54;127.87;;;16.20;;
4274;SDS011;2151;50.988;11.068;2022-10-29T03:28:22;128.37;;;16.67;;
4274;SDS011;2151;50.988;11.068;2022-10-29T03:30:48;127.73;;;16.27;;
4274;SDS011;2151;50.988;11.068;2022-10-29T03:33:15;128.43;;;16.90;;
4274;SDS011;2151;50.988;11.068;2022-10-29T03:35:41;128.40;;;16.87;;
4274;SDS011;2151;50.988;11.068;2022-10-29T03:38:08;127.20;;;15.77;;
4274;SDS011;2151;50.988;11.068;2022-10-29T03:40:34;127.57;;;16.47;;
4274;SDS011;2151;50.988;11.068;2022-10-29T03:43:00;127.77;;;16.47;;
4274;SDS011;2151;50.988;11.068;2022-10-29T03:45:27;128.17;;;16.93;;
4274;SDS011;2151;50.988;11.068;2022-10-29T03:47:53;126.47;;;15.50;;
4274;SDS011;2151;50.988;11.068;2022-10-29T03:50:20;127.67;;;16.97;;
4274;SDS011;2151;50.988;11.068;2022-10-29T03:52:46;127.57;;;16.47;;
4274;SDS011;2151;50.988;11.068;2022-10-29T03:55:13;126.90;;;15.57;;
4274;SDS011;2151;50.988;11.068;2022-10-29T03:57:39;127.07;;;16.77;;
4274;SDS011;2151;50.988;11.068;2022-10-29T04:00:05;125.80;;;13.97;;
4274;SDS011;2151;50.988;11.068;2022-10-29T04:02:32;125.97;;;13.90;;
4274;SDS011;2151;50.988;11.068;2022-10-29T04:04:58;125.67;;;13.87;;
4274;SDS011;2151;50.988;11.068;2022-10-29T04:07:24;126.20;;;13.90;;
4274;SDS011;2151;50.988;11.068;2022-10-29T04:09:51;125.47;;;12.50;;
4274;SDS011;2151;50.988;11.068;2022-10-29T04:12:17;124.23;;;10.93;;
4274;SDS011;2151;50.988;11.068;2022-10-29T04:14:44;123.40;;;11.07;;
4274;SDS011;2151;50.988;11.068;2022-10-29T04:17:11;123.80;;;10.80;;
4274;SDS011;2151;50.988;11.068;2022-10-29T04:19:37;124.00;;;10.43;;
4274;SDS011;2151;50.988;11.068;2022-10-29T04:22:04;123.57;;;9.53;;
4274;SDS011;2151;50.988;11.068;2022-10-29T04:24:50;123.17;;;9.10;;
4274;SDS011;2151;50.988;11.068;2022-10-29T04:27:37;122.27;;;8.80;;
4274;SDS011;2151;50.988;11.068;2022-10-29T04:30:23;122.57;;;8.20;;
4274;SDS011;2151;50.988;11.068;2022-10-29T04:32:50;122.10;;;7.90;;
4274;SDS011;2151;50.988;11.068;2022-10-29T04:35:16;122.30;;;7.93;;
4274;SDS011;2151;50.988;11.068;2022-10-29T04:37:42;121.77;;;7.80;;
4274;SDS011;2151;50.988;11.068;2022-10-29T04:40:09;122.57;;;7.90;;
4274;SDS011;2151;50.988;11.068;2022-10-29T04:42:36;122.17;;;8.00;;
4274;SDS011;2151;50.988;11.068;2022-10-29T04:45:03;121.87;;;7.93;;
4274;SDS011;2151;50.988;11.068;2022-10-29T04:47:30;122.27;;;7.40;;
4274;SDS011;2151;50.988;11.068;2022-10-29T04:49:56;122.37;;;7.30;;
4274;SDS011;2151;50.988;11.068;2022-10-29T04:52:22;122.13;;;7.27;;
4274;SDS011;2151;50.988;11.068;2022-10-29T04:54:49;121.57;;;6.87;;
4274;SDS011;2151;50.988;11.068;2022-10-29T04:57:15;122.23;;;6.47;;
4274;SDS011;2151;50.988;11.068;2022-10-29T04:59:42;121.40;;;6.73;;
4274;SDS011;2151;50.988;11.068;2022-10-29T05:02:09;121.37;;;6.37;;
4274;SDS011;2151;50.988;11.068;2022-10-29T05:04:35;121.80;;;6.43;;
4274;SDS011;2151;50.988;11.068;2022-10-29T05:07:01;121.90;;;6.60;;
4274;SDS011;2151;50.988;11.068;2022-10-29T05:09:28;121.70;;;6.23;;
4274;SDS011;2151;50.988;11.068;2022-10-29T05:11:54;121.20;;;6.53;;
4274;SDS011;2151;50.988;11.068;2022-10-29T05:14:20;121.37;;;6.60;;
4274;SDS011;2151;50.988;11.068;2022-10-29T05:16:47;122.27;;;6.00;;
4274;SDS011;2151;50.988;11.068;2022-10-29T05:19:13;121.60;;;6.23;;
4274;SDS011;2151;50.988;11.068;2022-10-29T05:21:39;121.67;;;5.80;;
4274;SDS011;2151;50.988;11.068;2022-10-29T05:24:06;121.47;;;5.80;;
4274;SDS011;2151;50.988;11.068;2022-10-29T05:26:32;121.57;;;6.27;;
4274;SDS011;2151;50.988;11.068;2022-10-29T05:28:59;122.83;;;6.23;;
4274;SDS011;2151;50.988;11.068;2022-10-29T05:31:25;121.33;;;6.40;;
4274;SDS011;2151;50.988;11.068;2022-10-29T05:33:51;121.67;;;6.60;;
4274;SDS011;2151;50.988;11.068;2022-10-29T05:36:21;121.67;;;6.17;;
4274;SDS011;2151;50.988;11.068;2022-10-29T05:38:47;120.60;;;5.63;;
4274;SDS011;2151;50.988;11.068;2022-10-29T05:41:14;121.67;;;6.13;;
4274;SDS011;2151;50.988;11.068;2022-10-29T05:43:40;121.77;;;6.33;;
4274;SDS011;2151;50.988;11.068;2022-10-29T05:46:06;122.37;;;6.23;;
4274;SDS011;2151;50.988;11.068;2022-10-29T05:48:33;121.17;;;6.27;;
4274;SDS011;2151;50.988;11.068;2022-10-29T05:50:59;124.83;;;5.97;;
4274;SDS011;2151;50.988;11.068;2022-10-29T05:53:25;121.17;;;6.07;;
4274;SDS011;2151;50.988;11.068;2022-10-29T05:55:52;121.27;;;6.10;;
4274;SDS011;2151;50.988;11.068;2022-10-29T05:58:18;121.27;;;5.63;;
4274;SDS011;2151;50.988;11.068;2022-10-29T06:00:44;123.57;;;6.87;;
4274;SDS011;2151;50.988;11.068;2022-10-29T06:03:15;121.40;;;6.13;;
4274;SDS011;2151;50.988;11.068;2022-10-29T06:05:42;122.00;;;6.50;;
4274;SDS011;2151;50.988;11.068;2022-10-29T06:08:08;122.00;;;6.23;;
4274;SDS011;2151;50.988;11.068;2022-10-29T06:10:35;122.00;;;6.10;;
4274;SDS011;2151;50.988;11.068;2022-10-29T06:13:01;121.27;;;5.77;;
4274;SDS011;2151;50.988;11.068;2022-10-29T06:15:27;123.37;;;6.50;;
4274;SDS011;2151;50.988;11.068;2022-10-29T06:17:54;120.53;;;5.57;;
4274;SDS011;2151;50.988;11.068;2022-10-29T06:20:20;121.47;;;5.73;;
4274;SDS011;2151;50.988;11.068;2022-10-29T06:22:53;121.60;;;5.70;;
4274;SDS011;2151;50.988;11.068;2022-10-29T06:25:21;121.57;;;5.93;;
4274;SDS011;2151;50.988;11.068;2022-10-29T06:27:47;121.43;;;5.53;;
4274;SDS011;2151;50.988;11.068;2022-10-29T06:30:13;122.17;;;5.60;;
4274;SDS011;2151;50.988;11.068;2022-10-29T06:32:40;122.00;;;5.57;;
4274;SDS011;2151;50.988;11.068;2022-10-29T06:35:06;122.00;;;5.50;;
4274;SDS011;2151;50.988;11.068;2022-10-29T06:37:36;121.37;;;5.63;;
4274;SDS011;2151;50.988;11.068;2022-10-29T06:40:02;121.10;;;5.63;;
4274;SDS011;2151;50.988;11.068;2022-10-29T06:42:28;121.17;;;6.03;;
4274;SDS011;2151;50.988;11.068;2022-10-29T06:44:55;121.90;;;5.37;;
4274;SDS011;2151;50.988;11.068;2022-10-29T06:47:21;120.50;;;5.73;;
4274;SDS011;2151;50.988;11.068;2022-10-29T06:49:47;121.70;;;5.80;;
4274;SDS011;2151;50.988;11.068;2022-10-29T06:52:14;122.30;;;6.60;;
4274;SDS011;2151;50.988;11.068;2022-10-29T06:54:40;121.60;;;5.90;;
4274;SDS011;2151;50.988;11.068;2022-10-29T06:57:19;121.57;;;5.63;;
4274;SDS011;2151;50.988;11.068;2022-10-29T06:59:51;121.37;;;5.57;;
4274;SDS011;2151;50.988;11.068;2022-10-29T07:02:17;121.20;;;5.63;;
4274;SDS011;2151;50.988;11.068;2022-10-29T07:04:52;121.30;;;5.67;;
4274;SDS011;2151;50.988;11.068;2022-10-29T07:07:18;121.87;;;5.73;;
4274;SDS011;2151;50.988;11.068;2022-10-29T07:09:46;122.20;;;6.60;;
4274;SDS011;2151;50.988;11.068;2022-10-29T07:12:12;121.07;;;6.60;;
4274;SDS011;2151;50.988;11.068;2022-10-29T07:14:39;121.43;;;5.97;;
4274;SDS011;2151;50.988;11.068;2022-10-29T07:17:05;122.17;;;6.80;;
4274;SDS011;2151;50.988;11.068;2022-10-29T07:19:31;121.57;;;6.47;;
4274;SDS011;2151;50.988;11.068;2022-10-29T07:21:58;121.77;;;6.53;;
4274;SDS011;2151;50.988;11.068;2022-10-29T07:24:25;122.30;;;6.80;;
4274;SDS011;2151;50.988;11.068;2022-10-29T07:26:51;121.53;;;6.93;;
4274;SDS011;2151;50.988;11.068;2022-10-29T07:29:18;121.40;;;7.87;;
4274;SDS011;2151;50.988;11.068;2022-10-29T07:31:44;123.27;;;8.87;;
4274;SDS011;2151;50.988;11.068;2022-10-29T07:34:10;123.97;;;10.23;;
4274;SDS011;2151;50.988;11.068;2022-10-29T07:36:37;123.00;;;10.67;;
4274;SDS011;2151;50.988;11.068;2022-10-29T07:39:03;124.50;;;12.57;;
4274;SDS011;2151;50.988;11.068;2022-10-29T07:41:30;123.27;;;10.90;;
4274;SDS011;2151;50.988;11.068;2022-10-29T07:43:57;124.27;;;11.67;;
4274;SDS011;2151;50.988;11.068;2022-10-29T07:46:23;124.17;;;12.97;;
4274;SDS011;2151;50.988;11.068;2022-10-29T07:48:49;125.30;;;13.50;;
4274;SDS011;2151;50.988;11.068;2022-10-29T07:51:16;126.00;;;15.03;;
4274;SDS011;2151;50.988;11.068;2022-10-29T07:53:42;126.63;;;14.87;;
4274;SDS011;2151;50.988;11.068;2022-10-29T07:56:08;127.40;;;16.10;;
4274;SDS011;2151;50.988;11.068;2022-10-29T07:58:35;126.20;;;13.90;;
4274;SDS011;2151;50.988;11.068;2022-10-29T08:01:01;126.20;;;14.90;;
4274;SDS011;2151;50.988;11.068;2022-10-29T08:03:28;127.37;;;15.50;;
4274;SDS011;2151;50.988;11.068;2022-10-29T08:05:57;127.47;;;16.10;;
4274;SDS011;2151;50.988;11.068;2022-10-29T08:08:23;128.30;;;16.33;;
4274;SDS011;2151;50.988;11.068;2022-10-29T08:10:50;128.83;;;17.97;;
4274;SDS011;2151;50.988;11.068;2022-10-29T08:13:16;127.90;;;16.27;;
4274;SDS011;2151;50.988;11.068;2022-10-29T08:15:44;128.90;;;16.87;;
4274;SDS011;2151;50.988;11.068;2022-10-29T08:18:15;129.37;;;16.60;;
4274;SDS011;2151;50.988;11.068;2022-10-29T08:20:41;129.47;;;16.13;;
4274;SDS011;2151;50.988;11.068;2022-10-29T08:23:08;129.77;;;15.00;;
4274;SDS011;2151;50.988;11.068;2022-10-29T08:25:34;130.07;;;14.70;;
4274;SDS011;2151;50.988;11.068;2022-10-29T08:28:06;130.17;;;14.13;;
4274;SDS011;2151;50.988;11.068;2022-10-29T08:30:33;130.47;;;12.80;;
4274;SDS011;2151;50.988;11.068;2022-10-29T08:33:00;131.13;;;12.47;;
4274;SDS011;2151;50.988;11.068;2022-10-29T08:35:27;130.40;;;12.50;;
4274;SDS011;2151;50.988;11.068;2022-10-29T08:37:53;131.80;;;12.57;;
4274;SDS011;2151;50.988;11.068;2022-10-29T08:40:28;129.60;;;11.90;;
4274;SDS011;2151;50.988;11.068;2022-10-29T08:50:33;127.60;;;9.03;;
4274;SDS011;2151;50.988;11.068;2022-10-29T08:53:14;127.90;;;9.60;;
4274;SDS011;2151;50.988;11.068;2022-10-29T08:55:49;128.90;;;9.33;;
4274;SDS011;2151;50.988;11.068;2022-10-29T08:58:29;128.70;;;10.13;;
4274;SDS011;2151;50.988;11.068;2022-10-29T09:00:58;126.53;;;8.70;;
4274;SDS011;2151;50.988;11.068;2022-10-29T09:03:27;129.07;;;9.53;;
4274;SDS011;2151;50.988;11.068;2022-10-29T09:08:26;125.40;;;8.10;;
4274;SDS011;2151;50.988;11.068;2022-10-29T09:10:58;125.63;;;8.30;;
4274;SDS011;2151;50.988;11.068;2022-10-29T09:26:01;120.93;;;5.97;;
4274;SDS011;2151;50.988;11.068;2022-10-29T09:33:47;118.07;;;5.23;;
4274;SDS011;2151;50.988;11.068;2022-10-29T09:36:19;118.87;;;5.17;;
4274;SDS011;2151;50.988;11.068;2022-10-29T09:38:52;117.83;;;5.23;;
4274;SDS011;2151;50.988;11.068;2022-10-29T09:41:21;117.90;;;5.50;;
4274;SDS011;2151;50.988;11.068;2022-10-29T09:43:49;118.77;;;5.77;;
4274;SDS011;2151;50.988;11.068;2022-10-29T09:48:50;120.30;;;6.70;;
4274;SDS011;2151;50.988;11.068;2022-10-29T09:51:32;117.70;;;6.20;;
4274;SDS011;2151;50.988;11.068;2022-10-29T09:53:59;116.77;;;5.03;;
4274;SDS011;2151;50.988;11.068;2022-10-29T09:56:26;117.47;;;5.70;;
4274;SDS011;2151;50.988;11.068;2022-10-29T09:58:54;116.00;;;4.67;;
4274;SDS011;2151;50.988;11.068;2022-10-29T10:01:22;116.67;;;4.70;;
4274;SDS011;2151;50.988;11.068;2022-10-29T10:03:53;116.93;;;4.90;;
4274;SDS011;2151;50.988;11.068;2022-10-29T10:06:20;116.57;;;5.20;;
4274;SDS011;2151;50.988;11.068;2022-10-29T10:09:05;116.40;;;5.00;;
4274;SDS011;2151;50.988;11.068;2022-10-29T10:11:41;115.87;;;4.83;;
4274;SDS011;2151;50.988;11.068;2022-10-29T10:14:13;116.83;;;5.80;;
4274;SDS011;2151;50.988;11.068;2022-10-29T10:16:41;116.30;;;5.73;;
4274;SDS011;2151;50.988;11.068;2022-10-29T10:19:21;116.50;;;4.80;;
4274;SDS011;2151;50.988;11.068;2022-10-29T10:21:55;115.00;;;4.67;;
4274;SDS011;2151;50.988;11.068;2022-10-29T10:26:57;115.53;;;4.77;;
4274;SDS011;2151;50.988;11.068;2022-10-29T10:29:24;115.00;;;4.80;;
4274;SDS011;2151;50.988;11.068;2022-10-29T10:34:21;115.77;;;4.90;;
4274;SDS011;2151;50.988;11.068;2022-10-29T10:36:50;116.50;;;4.73;;
4274;SDS011;2151;50.988;11.068;2022-10-29T10:44:46;116.37;;;4.70;;
4274;SDS011;2151;50.988;11.068;2022-10-29T10:47:13;116.80;;;5.60;;
4274;SDS011;2151;50.988;11.068;2022-10-29T10:49:44;116.87;;;4.57;;
4274;SDS011;2151;50.988;11.068;2022-10-29T10:52:14;115.73;;;4.90;;
4274;SDS011;2151;50.988;11.068;2022-10-29T10:55:02;115.87;;;4.67;;
4274;SDS011;2151;50.988;11.068;2022-10-29T10:57:35;116.43;;;5.33;;
4274;SDS011;2151;50.988;11.068;2022-10-29T11:00:08;115.87;;;5.33;;
4274;SDS011;2151;50.988;11.068;2022-10-29T11:08:23;115.87;;;5.20;;
4274;SDS011;2151;50.988;11.068;2022-10-29T11:10:52;115.57;;;4.77;;
4274;SDS011;2151;50.988;11.068;2022-10-29T11:13:29;115.03;;;4.70;;
4274;SDS011;2151;50.988;11.068;2022-10-29T11:18:29;116.30;;;4.83;;
4274;SDS011;2151;50.988;11.068;2022-10-29T11:21:05;115.30;;;4.87;;
4274;SDS011;2151;50.988;11.068;2022-10-29T11:31:48;115.27;;;5.00;;
4274;SDS011;2151;50.988;11.068;2022-10-29T11:36:53;118.30;;;5.23;;
4274;SDS011;2151;50.988;11.068;2022-10-29T11:39:32;115.07;;;4.50;;
4274;SDS011;2151;50.988;11.068;2022-10-29T11:42:03;116.03;;;4.93;;
4274;SDS011;2151;50.988;11.068;2022-10-29T11:44:33;115.77;;;4.50;;
4274;SDS011;2151;50.988;11.068;2022-10-29T11:49:35;114.77;;;4.80;;
4274;SDS011;2151;50.988;11.068;2022-10-29T11:52:10;114.47;;;4.20;;
4274;SDS011;2151;50.988;11.068;2022-10-29T12:00:19;114.50;;;4.33;;
4274;SDS011;2151;50.988;11.068;2022-10-29T12:05:29;113.77;;;4.20;;
4274;SDS011;2151;50.988;11.068;2022-10-29T12:21:05;113.73;;;3.70;;
4274;SDS011;2151;50.988;11.068;2022-10-29T12:23:36;121.60;;;4.60;;
4274;SDS011;2151;50.988;11.068;2022-10-29T12:34:02;113.27;;;4.10;;
4274;SDS011;2151;50.988;11.068;2022-10-29T12:36:32;113.07;;;4.13;;
4274;SDS011;2151;50.988;11.068;2022-10-29T12:39:00;113.77;;;4.37;;
4274;SDS011;2151;50.988;11.068;2022-10-29T12:41:41;113.40;;;4.50;;
4274;SDS011;2151;50.988;11.068;2022-10-29T12:44:12;113.23;;;4.27;;
4274;SDS011;2151;50.988;11.068;2022-10-29T12:47:04;113.27;;;3.97;;
4274;SDS011;2151;50.988;11.068;2022-10-29T12:49:36;116.10;;;4.60;;
4274;SDS011;2151;50.988;11.068;2022-10-29T12:52:11;113.40;;;4.57;;
4274;SDS011;2151;50.988;11.068;2022-10-29T12:54:40;113.27;;;4.20;;
4274;SDS011;2151;50.988;11.068;2022-10-29T12:59:40;114.20;;;4.60;;
4274;SDS011;2151;50.988;11.068;2022-10-29T13:02:17;115.03;;;4.83;;
4274;SDS011;2151;50.988;11.068;2022-10-29T13:07:29;113.47;;;4.93;;
4274;SDS011;2151;50.988;11.068;2022-10-29T13:15:20;113.80;;;4.87;;
4274;SDS011;2151;50.988;11.068;2022-10-29T13:17:48;113.77;;;4.77;;
4274;SDS011;2151;50.988;11.068;2022-10-29T13:27:57;114.10;;;5.13;;
4274;SDS011;2151;50.988;11.068;2022-10-29T13:30:24;113.57;;;4.43;;
4274;SDS011;2151;50.988;11.068;2022-10-29T13:32:52;116.77;;;5.47;;
4274;SDS011;2151;50.988;11.068;2022-10-29T13:43:10;114.30;;;5.00;;
4274;SDS011;2151;50.988;11.068;2022-10-29T13:45:35;113.73;;;4.73;;
4274;SDS011;2151;50.988;11.068;2022-10-29T13:48:04;113.17;;;4.43;;
4274;SDS011;2151;50.988;11.068;2022-10-29T13:50:31;113.83;;;4.73;;
4274;SDS011;2151;50.988;11.068;2022-10-29T13:52:59;114.70;;;4.83;;
4274;SDS011;2151;50.988;11.068;2022-10-29T13:55:28;113.27;;;4.73;;
4274;SDS011;2151;50.988;11.068;2022-10-29T13:58:02;113.40;;;4.93;;
4274;SDS011;2151;50.988;11.068;2022-10-29T14:00:31;114.10;;;5.30;;
4274;SDS011;2151;50.988;11.068;2022-10-29T14:03:03;113.27;;;4.60;;
4274;SDS011;2151;50.988;11.068;2022-10-29T14:05:39;113.47;;;4.77;;
4274;SDS011;2151;50.988;11.068;2022-10-29T14:10:46;113.00;;;4.53;;
4274;SDS011;2151;50.988;11.068;2022-10-29T14:18:29;113.77;;;4.40;;
4274;SDS011;2151;50.988;11.068;2022-10-29T14:20:57;113.20;;;4.30;;
4274;SDS011;2151;50.988;11.068;2022-10-29T14:23:24;113.67;;;4.37;;
4274;SDS011;2151;50.988;11.068;2022-10-29T14:25:51;114.77;;;4.60;;
4274;SDS011;2151;50.988;11.068;2022-10-29T14:28:25;114.33;;;5.03;;
4274;SDS011;2151;50.988;11.068;2022-10-29T14:31:11;113.67;;;4.60;;
4274;SDS011;2151;50.988;11.068;2022-10-29T14:33:38;113.37;;;4.33;;
4274;SDS011;2151;50.988;11.068;2022-10-29T14:36:07;113.47;;;4.77;;
4274;SDS011;2151;50.988;11.068;2022-10-29T14:38:39;113.00;;;4.53;;
4274;SDS011;2151;50.988;11.068;2022-10-29T14:41:07;113.20;;;4.43;;
4274;SDS011;2151;50.988;11.068;2022-10-29T14:43:33;113.00;;;4.47;;
4274;SDS011;2151;50.988;11.068;2022-10-29T14:46:17;113.27;;;4.50;;
4274;SDS011;2151;50.988;11.068;2022-10-29T14:48:48;113.47;;;4.50;;
4274;SDS011;2151;50.988;11.068;2022-10-29T14:51:17;113.40;;;4.67;;
4274;SDS011;2151;50.988;11.068;2022-10-29T14:53:44;113.47;;;4.80;;
4274;SDS011;2151;50.988;11.068;2022-10-29T14:56:10;114.30;;;5.23;;
4274;SDS011;2151;50.988;11.068;2022-10-29T14:58:43;113.40;;;4.90;;
4274;SDS011;2151;50.988;11.068;2022-10-29T15:01:13;113.60;;;4.50;;
4274;SDS011;2151;50.988;11.068;2022-10-29T15:03:41;114.07;;;4.90;;
4274;SDS011;2151;50.988;11.068;2022-10-29T15:06:12;113.80;;;4.83;;
4274;SDS011;2151;50.988;11.068;2022-10-29T15:08:39;113.87;;;4.80;;
4274;SDS011;2151;50.988;11.068;2022-10-29T15:11:27;114.17;;;4.80;;
4274;SDS011;2151;50.988;11.068;2022-10-29T15:13:53;113.50;;;4.50;;
4274;SDS011;2151;50.988;11.068;2022-10-29T15:16:19;113.83;;;4.70;;
4274;SDS011;2151;50.988;11.068;2022-10-29T15:18:49;113.40;;;4.47;;
4274;SDS011;2151;50.988;11.068;2022-10-29T15:21:24;113.67;;;4.60;;
4274;SDS011;2151;50.988;11.068;2022-10-29T15:23:53;113.97;;;4.30;;
4274;SDS011;2151;50.988;11.068;2022-10-29T15:26:20;113.30;;;4.60;;
4274;SDS011;2151;50.988;11.068;2022-10-29T15:28:51;114.33;;;5.40;;
4274;SDS011;2151;50.988;11.068;2022-10-29T15:31:21;114.80;;;5.23;;
4274;SDS011;2151;50.988;11.068;2022-10-29T15:33:51;114.37;;;4.90;;
4274;SDS011;2151;50.988;11.068;2022-10-29T15:36:18;117.10;;;5.20;;
4274;SDS011;2151;50.988;11.068;2022-10-29T15:43:51;115.87;;;4.57;;
4274;SDS011;2151;50.988;11.068;2022-10-29T15:46:20;115.27;;;4.90;;
4274;SDS011;2151;50.988;11.068;2022-10-29T15:48:48;116.60;;;4.83;;
4274;SDS011;2151;50.988;11.068;2022-10-29T15:51:15;114.87;;;4.90;;
4274;SDS011;2151;50.988;11.068;2022-10-29T15:53:42;114.30;;;4.40;;
4274;SDS011;2151;50.988;11.068;2022-10-29T15:56:09;114.87;;;4.63;;
4274;SDS011;2151;50.988;11.068;2022-10-29T15:58:37;114.80;;;4.70;;
4274;SDS011;2151;50.988;11.068;2022-10-29T16:01:03;116.20;;;4.67;;
4274;SDS011;2151;50.988;11.068;2022-10-29T16:03:30;115.57;;;4.67;;
4274;SDS011;2151;50.988;11.068;2022-10-29T16:06:04;116.27;;;4.90;;
4274;SDS011;2151;50.988;11.068;2022-10-29T16:08:47;115.87;;;4.70;;
4274;SDS011;2151;50.988;11.068;2022-10-29T16:11:15;116.40;;;5.10;;
4274;SDS011;2151;50.988;11.068;2022-10-29T16:13:42;116.47;;;4.80;;
4274;SDS011;2151;50.988;11.068;2022-10-29T16:16:10;116.77;;;5.50;;
4274;SDS011;2151;50.988;11.068;2022-10-29T16:18:37;116.37;;;4.87;;
4274;SDS011;2151;50.988;11.068;2022-10-29T16:21:04;116.47;;;5.20;;
4274;SDS011;2151;50.988;11.068;2022-10-29T16:23:32;116.80;;;5.23;;
4274;SDS011;2151;50.988;11.068;2022-10-29T16:25:58;116.40;;;5.10;;
4274;SDS011;2151;50.988;11.068;2022-10-29T16:28:25;116.20;;;5.20;;
4274;SDS011;2151;50.988;11.068;2022-10-29T16:30:52;116.47;;;5.13;;
4274;SDS011;2151;50.988;11.068;2022-10-29T16:33:19;116.47;;;5.40;;
4274;SDS011;2151;50.988;11.068;2022-10-29T16:35:45;116.77;;;5.20;;
4274;SDS011;2151;50.988;11.068;2022-10-29T16:38:12;117.30;;;5.40;;
4274;SDS011;2151;50.988;11.068;2022-10-29T16:40:38;116.77;;;5.40;;
4274;SDS011;2151;50.988;11.068;2022-10-29T16:43:07;116.63;;;5.37;;
4274;SDS011;2151;50.988;11.068;2022-10-29T16:45:34;117.33;;;5.67;;
4274;SDS011;2151;50.988;11.068;2022-10-29T16:48:00;117.37;;;5.77;;
4274;SDS011;2151;50.988;11.068;2022-10-29T16:50:28;117.00;;;5.47;;
4274;SDS011;2151;50.988;11.068;2022-10-29T16:53:01;126.77;;;5.53;;
4274;SDS011;2151;50.988;11.068;2022-10-29T16:55:28;117.50;;;5.00;;
4274;SDS011;2151;50.988;11.068;2022-10-29T16:57:54;122.30;;;6.00;;
4274;SDS011;2151;50.988;11.068;2022-10-29T17:00:21;117.40;;;4.93;;
4274;SDS011;2151;50.988;11.068;2022-10-29T17:02:48;117.00;;;4.83;;
4274;SDS011;2151;50.988;11.068;2022-10-29T17:05:14;117.30;;;4.93;;
4274;SDS011;2151;50.988;11.068;2022-10-29T17:07:41;117.67;;;5.10;;
4274;SDS011;2151;50.988;11.068;2022-10-29T17:10:08;119.40;;;6.17;;
4274;SDS011;2151;50.988;11.068;2022-10-29T17:12:35;117.37;;;5.10;;
4274;SDS011;2151;50.988;11.068;2022-10-29T17:15:01;119.03;;;5.73;;
4274;SDS011;2151;50.988;11.068;2022-10-29T17:17:28;118.27;;;5.17;;
4274;SDS011;2151;50.988;11.068;2022-10-29T17:19:55;119.47;;;5.90;;
4274;SDS011;2151;50.988;11.068;2022-10-29T17:22:21;119.67;;;6.33;;
4274;SDS011;2151;50.988;11.068;2022-10-29T17:24:48;118.37;;;5.63;;